Аэропорт: Актау. Актау

ICAO: UATE

METAR:
2019/05/26 14:00
UATE 261400Z 25003MPS 210V270 CAVOK 26/14 Q1008 R30/0///70 NOSIG RMK QFE755/1006
METAR:
2019/05/26 12:18
TAF UATE 261105Z 2612/2712 VRB02MPS 9999 SCT033CB TX25/2708Z TN14/2702Z 
      TEMPO 2618/2703 -SHRA